createdAt,value
2019-03-19T00:01:49.151Z,69.36
2019-03-19T00:04:20.222Z,69.75
2019-03-19T00:06:51.265Z,70.01
2019-03-19T00:09:22.477Z,70.37
2019-03-19T00:11:53.630Z,70.64
2019-03-19T00:14:24.702Z,70.96
2019-03-19T00:16:55.837Z,71.04
2019-03-19T00:19:26.983Z,71.38
2019-03-19T00:21:58.192Z,71.60
2019-03-19T00:24:29.306Z,71.84
2019-03-19T00:27:00.491Z,72.19
2019-03-19T00:29:31.539Z,72.38
2019-03-19T00:32:02.609Z,72.69
2019-03-19T00:34:34.698Z,72.65
2019-03-19T00:37:05.765Z,72.67
2019-03-19T00:39:36.765Z,72.62
2019-03-19T00:42:07.898Z,72.75
2019-03-19T00:44:38.931Z,72.92
2019-03-19T00:47:10.050Z,73.19
2019-03-19T00:49:41.135Z,73.45
2019-03-19T00:52:12.159Z,73.72
2019-03-19T00:54:43.246Z,73.79
2019-03-19T00:57:14.428Z,73.86
2019-03-19T00:59:45.432Z,73.98
2019-03-19T01:02:16.593Z,74.19
2019-03-19T01:04:47.610Z,74.49
2019-03-19T01:07:18.610Z,74.37
2019-03-19T01:09:49.752Z,74.54
2019-03-19T01:12:21.439Z,74.56
2019-03-19T01:14:52.469Z,74.83
2019-03-19T01:17:23.667Z,74.91
2019-03-19T01:19:54.777Z,75.04
2019-03-19T01:22:25.874Z,75.16
2019-03-19T01:24:56.963Z,75.14
2019-03-19T01:27:28.153Z,75.27
2019-03-19T01:29:59.373Z,75.34
2019-03-19T01:32:30.362Z,75.41
2019-03-19T01:35:01.407Z,75.61
2019-03-19T01:37:32.452Z,75.72
2019-03-19T01:40:05.071Z,75.77
2019-03-19T01:42:36.074Z,75.79
2019-03-19T01:45:11.963Z,75.84
2019-03-19T01:47:42.999Z,76.12
2019-03-19T01:50:15.047Z,76.37
2019-03-19T01:52:46.150Z,76.27
2019-03-19T01:55:17.254Z,76.52
2019-03-19T01:57:48.243Z,76.99
2019-03-19T02:00:20.360Z,77.19
2019-03-19T02:02:51.373Z,77.42
2019-03-19T02:05:23.565Z,77.33
2019-03-19T02:07:54.554Z,77.28
2019-03-19T02:10:25.558Z,77.64
2019-03-19T02:12:56.757Z,77.69
2019-03-19T02:15:27.785Z,77.71
2019-03-19T02:17:58.832Z,77.73
2019-03-19T02:20:29.908Z,77.99
2019-03-19T02:23:00.937Z,77.98
2019-03-19T02:25:32.052Z,78.08
2019-03-19T02:28:03.459Z,78.07
2019-03-19T02:30:34.496Z,78.07
2019-03-19T02:33:05.540Z,78.11
2019-03-19T02:35:36.549Z,77.96
2019-03-19T02:38:07.608Z,78.11
2019-03-19T02:40:38.661Z,78.05
2019-03-19T02:43:09.827Z,77.99
2019-03-19T02:45:40.823Z,78.22
2019-03-19T02:48:11.860Z,78.01
2019-03-19T02:50:42.930Z,78.00
2019-03-19T02:53:14.587Z,78.05
2019-03-19T02:55:45.577Z,78.00
2019-03-19T02:58:16.641Z,78.01
2019-03-19T03:00:47.745Z,78.11
2019-03-19T03:03:18.964Z,78.30
2019-03-19T03:05:50.072Z,78.21
2019-03-19T03:08:21.105Z,78.27
2019-03-19T03:10:52.250Z,78.18
2019-03-19T03:13:23.397Z,78.51
2019-03-19T03:15:54.415Z,78.72
2019-03-19T03:18:25.417Z,78.68
2019-03-19T03:20:56.515Z,79.21
2019-03-19T03:23:27.485Z,79.39
2019-03-19T03:25:58.561Z,79.69
2019-03-19T03:28:29.630Z,79.66
2019-03-19T03:31:00.630Z,79.75
2019-03-19T03:33:31.664Z,79.83
2019-03-19T03:36:02.803Z,80.22
2019-03-19T03:38:33.780Z,80.29
2019-03-19T03:41:04.834Z,80.21
2019-03-19T03:43:35.829Z,80.30
2019-03-19T03:46:06.888Z,80.45
2019-03-19T03:48:38.021Z,80.51
2019-03-19T03:51:09.022Z,80.70
2019-03-19T03:53:40.164Z,80.52
2019-03-19T03:56:11.180Z,80.61
2019-03-19T03:58:42.232Z,80.56
2019-03-19T04:01:14.290Z,80.78
2019-03-19T04:03:45.290Z,80.86
2019-03-19T04:06:16.278Z,80.67
2019-03-19T04:08:47.335Z,80.67
2019-03-19T04:11:18.320Z,80.52
2019-03-19T04:13:49.378Z,80.11
2019-03-19T04:16:20.461Z,79.80
2019-03-19T04:18:51.590Z,79.61
2019-03-19T04:21:22.546Z,80.02
2019-03-19T04:23:53.521Z,79.59
2019-03-19T04:26:24.608Z,79.45
2019-03-19T04:28:55.607Z,79.39
2019-03-19T04:31:26.711Z,79.48
2019-03-19T04:33:58.769Z,79.69
2019-03-19T04:36:29.761Z,79.59
2019-03-19T04:39:00.842Z,79.48
2019-03-19T04:41:33.536Z,78.98
2019-03-19T04:44:04.635Z,78.64
2019-03-19T04:46:35.814Z,78.27
2019-03-19T04:49:07.025Z,77.55
2019-03-19T04:51:38.068Z,77.72
2019-03-19T04:54:09.147Z,77.37
2019-03-19T04:56:40.130Z,77.62
2019-03-19T04:59:11.182Z,77.05
2019-03-19T05:01:42.273Z,76.60
2019-03-19T05:04:13.257Z,76.61
2019-03-19T05:06:44.261Z,76.46
2019-03-19T05:09:15.222Z,76.56
2019-03-19T05:11:46.288Z,77.18
2019-03-19T05:14:17.258Z,77.34
2019-03-19T05:16:48.235Z,77.40
2019-03-19T05:19:19.743Z,77.76
2019-03-19T05:21:50.882Z,77.67
2019-03-19T05:24:21.868Z,77.86
2019-03-19T05:26:52.879Z,77.59
2019-03-19T05:29:24.024Z,77.81
2019-03-19T05:31:55.018Z,77.41
2019-03-19T05:34:35.655Z,76.62
2019-03-19T05:37:06.884Z,76.29
2019-03-19T05:39:37.876Z,76.58
2019-03-19T05:42:08.940Z,75.89
2019-03-19T05:44:40.024Z,75.42
2019-03-19T05:47:11.097Z,75.68
2019-03-19T05:49:42.085Z,75.39
2019-03-19T05:52:13.148Z,75.58
2019-03-19T05:54:44.211Z,75.61
2019-03-19T05:57:15.322Z,75.35
2019-03-19T05:59:46.348Z,74.51
2019-03-19T06:02:17.487Z,74.76
2019-03-19T06:04:48.624Z,74.98
2019-03-19T06:07:19.647Z,74.35
2019-03-19T06:09:50.715Z,74.07
2019-03-19T06:12:21.723Z,72.88
2019-03-19T06:14:52.861Z,73.80
2019-03-19T06:17:23.883Z,73.53
2019-03-19T06:19:54.891Z,73.13
2019-03-19T06:22:25.914Z,72.18
2019-03-19T06:24:56.977Z,72.51
2019-03-19T06:27:28.218Z,71.80
2019-03-19T06:29:59.485Z,72.33
2019-03-19T06:32:30.616Z,72.16
2019-03-19T06:35:01.877Z,71.70
2019-03-19T06:37:32.861Z,71.89
2019-03-19T06:40:06.518Z,71.34
2019-03-19T06:42:37.603Z,71.34
2019-03-19T06:45:11.437Z,71.42
2019-03-19T06:47:42.787Z,71.38
2019-03-19T06:50:18.986Z,71.33
2019-03-19T06:52:50.128Z,71.28
2019-03-19T06:55:21.391Z,71.15
2019-03-19T06:57:52.472Z,70.65
2019-03-19T07:00:24.575Z,70.26
2019-03-19T07:02:55.554Z,70.26
2019-03-19T07:05:26.761Z,70.02
2019-03-19T07:07:59.544Z,69.79
2019-03-19T07:10:30.628Z,69.95
2019-03-19T07:13:01.876Z,69.47
2019-03-19T07:15:32.982Z,69.22
2019-03-19T07:18:04.005Z,69.19
2019-03-19T07:20:35.033Z,68.90
2019-03-19T07:23:06.095Z,68.28
2019-03-19T07:25:37.454Z,68.17
2019-03-19T07:28:08.557Z,67.98
2019-03-19T07:30:40.963Z,67.98
2019-03-19T07:33:12.624Z,67.49
2019-03-19T07:35:47.018Z,67.15
2019-03-19T07:38:18.070Z,66.74
2019-03-19T07:40:49.133Z,66.36
2019-03-19T07:43:20.135Z,66.73
2019-03-19T07:45:51.113Z,66.16
2019-03-19T07:48:22.213Z,66.19
2019-03-19T07:50:53.392Z,65.89
2019-03-19T07:53:24.375Z,65.54
2019-03-19T07:55:55.564Z,64.80
2019-03-19T07:58:35.840Z,64.82
2019-03-19T08:00:59.583Z,65.22
2019-03-19T08:03:30.588Z,64.26
2019-03-19T08:06:01.576Z,64.29
2019-03-19T08:08:32.617Z,64.18
2019-03-19T08:11:03.835Z,64.07
2019-03-19T08:13:34.824Z,63.63
2019-03-19T08:16:05.924Z,63.32
2019-03-19T08:18:36.988Z,63.13
2019-03-19T08:21:08.052Z,62.59
2019-03-19T08:23:39.156Z,62.30
2019-03-19T08:26:10.160Z,61.98
2019-03-19T08:28:41.238Z,61.70
2019-03-19T08:31:12.293Z,61.08
2019-03-19T08:33:43.603Z,61.30
2019-03-19T08:36:14.747Z,60.93
2019-03-19T08:38:45.785Z,60.26
2019-03-19T08:41:16.861Z,60.42
2019-03-19T08:43:47.819Z,60.09
2019-03-19T08:46:18.933Z,60.03
2019-03-19T08:48:50.016Z,60.07
2019-03-19T08:51:21.280Z,59.53
2019-03-19T08:53:52.311Z,59.27
2019-03-19T08:56:23.372Z,59.12
2019-03-19T08:58:54.446Z,59.23
2019-03-19T09:01:25.570Z,59.03
2019-03-19T09:03:56.585Z,59.03
2019-03-19T09:06:27.776Z,59.23
2019-03-19T09:08:59.131Z,58.87
2019-03-19T09:11:31.231Z,58.78
2019-03-19T09:14:02.297Z,58.78
2019-03-19T09:16:33.269Z,59.10
2019-03-19T09:19:04.940Z,58.44
2019-03-19T09:21:35.971Z,57.87
2019-03-19T09:24:07.054Z,57.44
2019-03-19T09:26:38.045Z,57.63
2019-03-19T09:29:16.882Z,57.35
2019-03-19T09:31:41.820Z,57.36
2019-03-19T09:34:12.969Z,57.26
2019-03-19T09:36:43.981Z,56.95
2019-03-19T09:39:15.050Z,56.36
2019-03-19T09:41:46.204Z,56.31
2019-03-19T09:44:17.191Z,56.46
2019-03-19T09:46:48.380Z,56.20
2019-03-19T09:49:21.143Z,55.92
2019-03-19T09:51:52.354Z,55.88
2019-03-19T09:54:23.393Z,55.45
2019-03-19T09:56:54.856Z,55.36
2019-03-19T09:59:27.314Z,55.01
2019-03-19T10:01:58.620Z,54.52
2019-03-19T10:04:29.606Z,54.10
2019-03-19T10:07:06.024Z,53.88
2019-03-19T10:09:33.553Z,53.82
2019-03-19T10:12:04.523Z,53.40
2019-03-19T10:14:35.582Z,53.52
2019-03-19T10:17:07.345Z,53.29
2019-03-19T10:19:38.511Z,52.87
2019-03-19T10:22:09.573Z,52.55
2019-03-19T10:24:40.622Z,52.48
2019-03-19T10:27:11.698Z,51.76
2019-03-19T10:29:42.891Z,51.18
2019-03-19T10:32:14.063Z,51.07
2019-03-19T10:34:45.188Z,50.63
2019-03-19T10:37:16.234Z,50.51
2019-03-19T10:39:47.253Z,50.48
2019-03-19T10:42:18.221Z,50.28
2019-03-19T10:44:49.275Z,50.44
2019-03-19T10:47:20.591Z,50.47
2019-03-19T10:49:51.670Z,50.03
2019-03-19T10:52:22.920Z,49.14
2019-03-19T10:54:53.919Z,48.69
2019-03-19T10:57:25.435Z,48.77
2019-03-19T10:59:59.750Z,48.72
2019-03-19T11:02:30.940Z,48.20
2019-03-19T11:05:02.490Z,48.04
2019-03-19T11:07:33.462Z,47.14
2019-03-19T11:10:07.352Z,47.26
2019-03-19T11:12:38.508Z,47.18
2019-03-19T11:15:17.504Z,47.20
2019-03-19T11:17:48.611Z,47.68
2019-03-19T11:20:20.179Z,47.08
2019-03-19T11:22:51.351Z,47.03
2019-03-19T11:25:26.858Z,46.74
2019-03-19T11:27:57.967Z,45.63
2019-03-19T11:30:30.065Z,45.47
2019-03-19T11:33:01.235Z,46.36
2019-03-19T11:35:32.552Z,46.28
2019-03-19T11:38:04.313Z,46.77
2019-03-19T11:40:35.229Z,46.96
2019-03-19T11:43:06.211Z,45.80
2019-03-19T11:45:37.225Z,45.36
2019-03-19T11:48:08.219Z,46.43
2019-03-19T11:50:39.204Z,46.45
2019-03-19T11:53:10.246Z,46.31
2019-03-19T11:55:41.202Z,46.29
2019-03-19T11:58:12.202Z,46.26
2019-03-19T12:00:47.911Z,46.14
2019-03-19T12:03:19.075Z,46.11
2019-03-19T12:05:50.157Z,46.66
2019-03-19T12:08:21.220Z,46.50
2019-03-19T12:10:52.242Z,45.42
2019-03-19T12:13:23.436Z,46.10
2019-03-19T12:15:54.508Z,45.90
2019-03-19T12:18:25.602Z,46.43
2019-03-19T12:20:56.649Z,46.57
2019-03-19T12:23:27.799Z,46.95
2019-03-19T12:25:58.974Z,46.62
2019-03-19T12:28:39.291Z,45.24
2019-03-19T12:31:02.763Z,44.97
2019-03-19T12:33:40.760Z,44.73
2019-03-19T12:36:06.664Z,44.15
2019-03-19T12:38:37.884Z,44.29
2019-03-19T12:41:08.843Z,44.83
2019-03-19T12:43:39.747Z,44.94
2019-03-19T12:46:10.639Z,45.33
2019-03-19T12:48:41.602Z,45.70
2019-03-19T12:51:12.599Z,45.34
2019-03-19T12:53:43.679Z,44.91
2019-03-19T12:56:14.782Z,44.88
2019-03-19T12:58:45.855Z,44.70
2019-03-19T13:01:16.964Z,44.51
2019-03-19T13:03:48.166Z,44.48
2019-03-19T13:06:19.134Z,44.25
2019-03-19T13:08:50.127Z,43.92
2019-03-19T13:11:21.032Z,43.66
2019-03-19T13:13:52.232Z,43.65
2019-03-19T13:16:23.314Z,43.74
2019-03-19T13:18:54.372Z,43.91
2019-03-19T13:21:25.227Z,43.95
2019-03-19T13:23:56.390Z,43.81
2019-03-19T13:26:27.503Z,43.86
2019-03-19T13:28:58.463Z,43.71
2019-03-19T13:31:29.339Z,43.20
2019-03-19T13:34:00.535Z,43.25
2019-03-19T13:36:31.559Z,43.48
2019-03-19T13:39:02.795Z,43.79
2019-03-19T13:41:34.721Z,43.84
2019-03-19T13:44:05.917Z,44.00
2019-03-19T13:46:36.931Z,44.07
2019-03-19T13:49:08.440Z,44.00
2019-03-19T13:51:39.447Z,43.68
2019-03-19T13:54:10.711Z,43.58
2019-03-19T13:56:41.730Z,43.51
2019-03-19T13:59:12.757Z,43.91
2019-03-19T14:01:43.804Z,43.88
2019-03-19T14:04:15.065Z,44.00
2019-03-19T14:06:45.925Z,44.32
2019-03-19T14:09:16.926Z,44.60
2019-03-19T14:11:49.104Z,44.43
2019-03-19T14:14:20.191Z,44.40
2019-03-19T14:16:51.163Z,44.44
2019-03-19T14:19:22.282Z,44.67
2019-03-19T14:21:53.371Z,44.19
2019-03-19T14:24:24.470Z,44.52
2019-03-19T14:26:55.547Z,44.37
2019-03-19T14:29:26.646Z,44.27
2019-03-19T14:31:57.818Z,44.68
2019-03-19T14:34:28.920Z,44.83
2019-03-19T14:36:59.866Z,44.78
2019-03-19T14:39:31.086Z,45.26
2019-03-19T14:42:02.130Z,45.70
2019-03-19T14:44:33.203Z,45.67
2019-03-19T14:47:04.310Z,46.33
2019-03-19T14:49:46.077Z,46.07
2019-03-19T14:52:08.509Z,46.21
2019-03-19T14:54:40.323Z,45.94
2019-03-19T14:57:11.361Z,46.23
2019-03-19T14:59:42.767Z,46.13
2019-03-19T15:02:15.192Z,46.27
2019-03-19T15:04:46.313Z,46.59
2019-03-19T15:07:17.979Z,46.74
2019-03-19T15:09:49.010Z,46.61
2019-03-19T15:12:20.142Z,46.39
2019-03-19T15:14:52.216Z,46.32
2019-03-19T15:17:23.320Z,46.75
2019-03-19T15:19:54.463Z,46.83
2019-03-19T15:22:32.447Z,47.03
2019-03-19T15:24:58.558Z,47.31
2019-03-19T15:27:30.726Z,47.26
2019-03-19T15:30:03.042Z,47.53
2019-03-19T15:32:34.830Z,47.50
2019-03-19T15:35:08.988Z,47.54
2019-03-19T15:37:41.015Z,47.84
2019-03-19T15:40:16.411Z,48.28
2019-03-19T15:42:47.506Z,48.57
2019-03-19T15:45:26.552Z,48.38
2019-03-19T15:47:57.563Z,48.76
2019-03-19T15:50:28.696Z,48.64
2019-03-19T15:52:59.749Z,49.15
2019-03-19T15:55:30.938Z,48.66
2019-03-19T15:58:01.928Z,49.02
2019-03-19T16:00:33.418Z,48.81
2019-03-19T16:03:04.447Z,48.58
2019-03-19T16:05:35.681Z,48.91
2019-03-19T16:08:06.830Z,49.00
2019-03-19T16:10:38.928Z,48.79
2019-03-19T16:13:10.045Z,49.09
2019-03-19T16:15:41.183Z,49.07
2019-03-19T16:18:12.246Z,48.76
2019-03-19T16:20:43.417Z,49.01
2019-03-19T16:23:14.496Z,49.05
2019-03-19T16:25:45.553Z,48.98
2019-03-19T16:28:16.776Z,48.85
2019-03-19T16:30:47.746Z,49.20
2019-03-19T16:33:19.556Z,48.98
2019-03-19T16:35:50.760Z,48.95
2019-03-19T16:38:21.784Z,48.95
2019-03-19T16:40:52.927Z,48.96
2019-03-19T16:43:24.009Z,49.37
2019-03-19T16:45:55.112Z,49.45
2019-03-19T16:48:26.571Z,49.70
2019-03-19T16:50:57.610Z,49.55
2019-03-19T16:53:28.793Z,49.91
2019-03-19T16:56:00.340Z,49.64
2019-03-19T16:58:31.552Z,50.27
2019-03-19T17:01:02.608Z,50.69
2019-03-19T17:03:33.884Z,50.39
2019-03-19T17:06:04.982Z,50.48
2019-03-19T17:08:36.162Z,50.28
2019-03-19T17:11:07.354Z,50.43
2019-03-19T17:13:39.619Z,51.11
2019-03-19T17:16:10.775Z,51.31
2019-03-19T17:18:41.790Z,50.61
2019-03-19T17:21:12.782Z,50.84
2019-03-19T17:23:43.946Z,50.77
2019-03-19T17:26:14.988Z,50.63
2019-03-19T17:28:46.087Z,50.62
2019-03-19T17:31:17.199Z,50.68
2019-03-19T17:33:48.191Z,50.81
2019-03-19T17:36:19.363Z,50.86
2019-03-19T17:38:50.591Z,50.91
2019-03-19T17:41:21.804Z,51.16
2019-03-19T17:43:52.897Z,51.48
2019-03-19T17:46:23.995Z,51.33
2019-03-19T17:48:55.024Z,51.58
2019-03-19T17:51:26.073Z,51.70
2019-03-19T17:53:57.230Z,51.86
2019-03-19T17:56:46.078Z,51.53
2019-03-19T17:59:17.156Z,51.63
2019-03-19T18:01:48.186Z,52.03
2019-03-19T18:04:19.427Z,52.33
2019-03-19T18:06:50.505Z,52.62
2019-03-19T18:09:21.627Z,52.53
2019-03-19T18:11:52.659Z,53.03
2019-03-19T18:14:23.816Z,53.20
2019-03-19T18:16:54.865Z,55.74
2019-03-19T18:19:26.019Z,54.09
2019-03-19T18:21:57.006Z,54.02
2019-03-19T18:24:28.095Z,55.50
2019-03-19T18:26:59.238Z,53.54
2019-03-19T18:29:30.303Z,54.65
2019-03-19T18:32:01.374Z,54.37
2019-03-19T18:34:32.982Z,54.32
2019-03-19T18:37:04.074Z,54.53
2019-03-19T18:39:35.696Z,54.52
2019-03-19T18:42:06.968Z,54.93
2019-03-19T18:44:38.030Z,54.70
2019-03-19T18:47:12.155Z,55.25
2019-03-19T18:49:43.937Z,55.45
2019-03-19T18:52:16.350Z,55.72
2019-03-19T18:54:47.645Z,55.52
2019-03-19T18:57:18.964Z,55.81
2019-03-19T18:59:50.180Z,56.09
2019-03-19T19:02:21.427Z,56.05
2019-03-19T19:04:52.712Z,56.26
2019-03-19T19:07:24.112Z,56.14
2019-03-19T19:09:55.239Z,56.56
2019-03-19T19:12:26.357Z,56.89
2019-03-19T19:14:57.533Z,56.73
2019-03-19T19:17:28.673Z,56.71
2019-03-19T19:19:59.779Z,56.58
2019-03-19T19:22:30.919Z,57.15
2019-03-19T19:25:02.366Z,58.02
2019-03-19T19:27:33.836Z,57.94
2019-03-19T19:30:11.073Z,58.03
2019-03-19T19:32:42.089Z,58.31
2019-03-19T19:35:13.356Z,57.94
2019-03-19T19:37:44.605Z,57.95
2019-03-19T19:40:17.271Z,58.01
2019-03-19T19:42:48.472Z,57.81
2019-03-19T19:45:20.063Z,57.88
2019-03-19T19:47:51.163Z,57.49
2019-03-19T19:50:23.327Z,57.62
2019-03-19T19:52:54.494Z,57.69
2019-03-19T19:55:25.886Z,58.01
2019-03-19T19:57:57.073Z,58.90
2019-03-19T20:00:28.165Z,58.81
2019-03-19T20:02:59.161Z,59.00
2019-03-19T20:05:30.408Z,59.54
2019-03-19T20:08:01.542Z,59.33
2019-03-19T20:10:32.706Z,59.26
2019-03-19T20:13:04.211Z,59.13
2019-03-19T20:15:35.481Z,59.04
2019-03-19T20:18:08.194Z,59.36
2019-03-19T20:20:39.436Z,60.15
2019-03-19T20:23:52.507Z,60.82
2019-03-19T20:26:40.319Z,60.98
2019-03-19T20:29:11.502Z,61.52
2019-03-19T20:31:42.698Z,61.52
2019-03-19T20:34:13.866Z,61.98
2019-03-19T20:36:45.585Z,61.72
2019-03-19T20:39:55.775Z,61.99
2019-03-19T20:42:26.878Z,62.14
2019-03-19T20:44:58.130Z,62.30
2019-03-19T20:47:29.279Z,62.32
2019-03-19T20:50:00.402Z,62.47
2019-03-19T20:52:31.728Z,62.34
2019-03-19T20:55:02.893Z,62.64
2019-03-19T20:57:34.083Z,62.87
2019-03-19T21:00:08.474Z,63.14
2019-03-19T21:02:39.717Z,62.96
2019-03-19T21:05:10.937Z,62.93
2019-03-19T21:07:42.142Z,62.97
2019-03-19T21:10:24.410Z,62.97
2019-03-19T21:12:55.658Z,62.94
2019-03-19T21:15:29.091Z,62.95
2019-03-19T21:18:00.457Z,62.68
2019-03-19T21:20:31.549Z,62.83
2019-03-19T21:23:02.584Z,63.06
2019-03-19T21:25:33.719Z,62.92
2019-03-19T21:28:13.596Z,62.66
2019-03-19T21:30:37.828Z,62.66
2019-03-19T21:33:09.007Z,63.03
2019-03-19T21:35:40.149Z,63.17
2019-03-19T21:38:11.185Z,63.15
2019-03-19T21:40:42.326Z,63.27
2019-03-19T21:43:13.473Z,63.23
2019-03-19T21:45:44.837Z,63.24
2019-03-19T21:48:15.971Z,63.19
2019-03-19T21:50:47.110Z,63.22
2019-03-19T21:53:18.167Z,63.42
2019-03-19T21:55:49.201Z,63.49
2019-03-19T21:58:20.168Z,63.61
2019-03-19T22:00:51.275Z,63.91
2019-03-19T22:03:22.419Z,63.91
2019-03-19T22:05:53.565Z,64.25
2019-03-19T22:08:24.709Z,64.25
2019-03-19T22:10:56.867Z,64.15
2019-03-19T22:13:28.029Z,63.95
2019-03-19T22:15:59.009Z,64.16
2019-03-19T22:18:30.103Z,64.24
2019-03-19T22:21:01.186Z,64.38
2019-03-19T22:23:32.281Z,64.18
2019-03-19T22:26:04.457Z,64.30
2019-03-19T22:28:35.617Z,64.86
2019-03-19T22:31:06.633Z,64.86
2019-03-19T22:33:37.789Z,64.98
2019-03-19T22:36:09.141Z,65.34
2019-03-19T22:38:40.412Z,65.51
2019-03-19T22:41:11.731Z,65.58
2019-03-19T22:43:43.023Z,65.73
2019-03-19T22:46:21.642Z,66.30
2019-03-19T22:48:47.323Z,66.30
2019-03-19T22:51:18.659Z,65.64
2019-03-19T22:53:49.958Z,65.83
2019-03-19T22:56:21.259Z,65.83
2019-03-19T22:58:52.547Z,65.59
2019-03-19T23:01:23.863Z,65.54
2019-03-19T23:03:55.113Z,65.61
2019-03-19T23:06:26.362Z,65.86
2019-03-19T23:08:57.702Z,65.86
2019-03-19T23:11:29.041Z,66.49
2019-03-19T23:14:00.395Z,66.49
2019-03-19T23:16:31.645Z,66.66
2019-03-19T23:19:03.002Z,66.71
2019-03-19T23:21:34.301Z,66.78
2019-03-19T23:24:05.554Z,66.96
2019-03-19T23:26:36.823Z,67.35
2019-03-19T23:29:07.880Z,67.35
2019-03-19T23:31:39.011Z,67.64
2019-03-19T23:34:10.057Z,67.96
2019-03-19T23:36:41.203Z,68.21
2019-03-19T23:39:12.355Z,68.13
2019-03-19T23:41:43.481Z,68.33
2019-03-19T23:44:14.529Z,68.44
2019-03-19T23:46:45.577Z,68.47
2019-03-19T23:49:16.721Z,68.97
2019-03-19T23:51:47.867Z,68.86
2019-03-19T23:54:19.074Z,68.86
2019-03-19T23:56:50.259Z,68.97
2019-03-19T23:59:21.385Z,68.97
